TimeCST,TemperatureF,Dew PointF,Humidity,Sea Level PressureIn,VisibilityMPH,Wind Direction,Wind SpeedMPH,Gust SpeedMPH,PrecipitationIn,Events,Conditions,WindDirDegrees,DateUTC
1:53 AM,32.0,24.1,73,30.01,10.0,East,11.5,-,N/A,,Overcast,90,2013-03-05 07:53:00
2:53 AM,32.0,24.1,73,29.99,10.0,East,11.5,-,N/A,,Overcast,90,2013-03-05 08:53:00
3:53 AM,32.0,24.1,73,29.97,10.0,East,15.0,-,N/A,,Overcast,80,2013-03-05 09:53:00
4:53 AM,32.0,25.0,75,29.96,10.0,East,15.0,-,N/A,,Overcast,90,2013-03-05 10:53:00
5:35 AM,32.0,24.8,75,29.92,10.0,East,12.7,-,N/A,,Overcast,80,2013-03-05 11:35:00
5:53 AM,33.1,24.1,70,29.95,10.0,East,13.8,-,N/A,,Overcast,80,2013-03-05 11:53:00
6:53 AM,33.1,25.0,72,29.94,10.0,East,15.0,-,N/A,,Overcast,100,2013-03-05 12:53:00
7:33 AM,33.8,24.8,70,29.91,1.8,East,15.0,-,0.00,Snow,Light Snow,100,2013-03-05 13:33:00
7:49 AM,33.8,24.8,70,29.91,3.0,East,11.5,-,0.00,Snow,Light Snow,100,2013-03-05 13:49:00
7:50 AM,33.1,25.0,72,29.94,3.0,East,11.5,-,0.00,Snow,Light Snow,100,2013-03-05 13:50:00
8:07 AM,33.8,24.8,70,29.92,1.8,East,17.3,-,0.00,Snow,Light Snow,100,2013-03-05 14:07:00
8:41 AM,30.2,26.6,86,29.92,0.5,East,18.4,-,0.00,Snow,Snow,90,2013-03-05 14:41:00
8:48 AM,30.2,26.6,86,29.92,0.2,East,13.8,-,0.00,Snow,Heavy Snow,100,2013-03-05 14:48:00
8:53 AM,30.0,27.0,88,29.95,0.2,East,13.8,-,0.00,Fog-Snow,Snow,100,2013-03-05 14:53:00
9:04 AM,30.2,26.6,86,29.92,0.2,East,11.5,-,0.01,Fog-Snow,Snow,90,2013-03-05 15:04:00
9:53 AM,30.0,27.0,88,29.94,0.2,East,11.5,-,0.04,Fog-Snow,Snow,80,2013-03-05 15:53:00
10:53 AM,30.0,27.0,88,29.91,0.2,East,18.4,-,0.02,Fog-Snow,Snow,80,2013-03-05 16:53:00
11:11 AM,30.2,26.6,86,29.88,0.5,East,18.4,-,0.01,Fog-Snow,Snow,80,2013-03-05 17:11:00
11:53 AM,30.0,27.0,88,29.88,0.5,ENE,19.6,-,0.01,Fog-Snow,Snow,70,2013-03-05 17:53:00
12:53 PM,30.0,26.1,85,29.87,0.5,East,16.1,-,0.01,Fog-Snow,Light Snow,80,2013-03-05 18:53:00
1:53 PM,28.9,27.0,92,29.87,0.5,ENE,15.0,-,0.01,Fog-Snow,Snow,70,2013-03-05 19:53:00
2:53 PM,28.9,26.1,89,29.88,0.5,ENE,18.4,-,0.02,Fog-Snow,Snow,60,2013-03-05 20:53:00
3:53 PM,28.9,26.1,89,29.88,0.5,NE,17.3,-,0.01,Fog-Snow,Light Snow,40,2013-03-05 21:53:00
4:37 PM,28.4,24.8,86,29.86,1.0,NE,11.5,21.9,0.00,Snow,Light Snow,40,2013-03-05 22:37:00
4:53 PM,28.9,25.0,85,29.89,1.5,NE,15.0,24.2,0.00,Snow,Light Snow,40,2013-03-05 22:53:00
5:08 PM,28.4,26.6,93,29.87,0.8,NNE,17.3,23.0,0.00,Snow,Light Snow,30,2013-03-05 23:08:00
5:19 PM,28.4,26.6,93,29.88,0.8,NNE,15.0,23.0,0.00,Snow,Light Snow,30,2013-03-05 23:19:00
5:35 PM,30.2,26.6,86,29.88,0.8,NNE,13.8,-,0.00,Snow,Light Snow,30,2013-03-05 23:35:00
5:53 PM,30.0,26.1,85,29.92,0.5,NE,17.3,-,0.00,Fog-Snow,Light Snow,40,2013-03-05 23:53:00
6:24 PM,30.2,26.6,86,29.90,0.5,NNE,15.0,21.9,0.00,Fog-Snow,Light Snow,30,2013-03-06 00:24:00
6:53 PM,30.0,28.0,92,29.93,0.5,NNE,10.4,-,0.01,Fog-Snow,Light Snow,20,2013-03-06 00:53:00
7:27 PM,30.2,28.4,93,29.91,0.8,NNE,16.1,24.2,0.00,Snow,Light Snow,20,2013-03-06 01:27:00
7:53 PM,30.9,27.0,85,29.94,0.8,North,16.1,29.9,0.00,Snow,Light Snow,10,2013-03-06 01:53:00
8:00 PM,30.2,26.6,86,29.92,1.8,North,17.3,26.5,0.00,Snow,Light Snow,10,2013-03-06 02:00:00
8:41 PM,30.2,24.8,80,29.93,9.0,North,16.1,24.2,0.00,,Overcast,360,2013-03-06 02:41:00
8:53 PM,30.0,25.0,82,29.96,10.0,North,17.3,23.0,0.00,,Overcast,360,2013-03-06 02:53:00
9:53 PM,30.0,25.0,82,29.99,10.0,North,13.8,-,N/A,,Overcast,360,2013-03-06 03:53:00
10:11 PM,30.2,24.8,80,29.96,10.0,North,13.8,19.6,N/A,,Overcast,350,2013-03-06 04:11:00
10:46 PM,30.2,26.6,86,29.97,10.0,North,11.5,-,N/A,,Overcast,350,2013-03-06 04:46:00
10:53 PM,30.9,26.1,82,30.00,10.0,North,13.8,-,N/A,,Overcast,350,2013-03-06 04:53:00
11:53 PM,30.9,25.0,79,30.01,10.0,North,17.3,25.3,N/A,,Overcast,10,2013-03-06 05:53:00